Time;durP1;ratioP1;P1;durP2;ratioP2;P2;SDS_P1;SDS_P2;PMS_P1;PMS_P2;Temp;Humidity;BMP_temperature;BMP_pressure;BME280_temperature;BME280_humidity;BME280_pressure;Samples;Min_cycle;Max_cycle;Signal;HPM_P1;HPM_P2
2023/12/04 00:02:00;;;;;;;0.43;0.43;;;;;;;;;;5041227;28;20052;-80
2023/12/04 00:04:31;;;;;;;1.65;1.48;;;;;;;;;;5046460;28;20052;-79
2023/12/04 00:06:59;;;;;;;6.30;4.25;;;;;;;;;;5040894;28;20568;-78
2023/12/04 00:09:27;;;;;;;1.55;1.17;;;;;;;;;;5043007;28;20499;-79
2023/12/04 00:11:55;;;;;;;1.05;1.05;;;;;;;;;;5045101;28;20041;-80
2023/12/04 00:14:22;;;;;;;1.75;1.63;;;;;;;;;;5041502;28;20419;-80
2023/12/04 00:16:49;;;;;;;1.55;1.42;;;;;;;;;;5040407;28;20045;-79
2023/12/04 00:19:17;;;;;;;1.20;1.10;;;;;;;;;;5044887;28;20164;-79
2023/12/04 00:21:44;;;;;;;2.67;2.45;;;;;;;;;;5043791;28;20072;-78
2023/12/04 00:24:12;;;;;;;0.52;0.52;;;;;;;;;;5045096;28;20049;-80
2023/12/04 00:26:42;;;;;;;1.30;1.23;;;;;;;;;;5044193;28;20045;-79
2023/12/04 00:29:10;;;;;;;1.88;1.77;;;;;;;;;;5040521;28;20148;-79
2023/12/04 00:31:37;;;;;;;0.15;0.15;;;;;;;;;;5040748;28;20414;-80
2023/12/04 00:34:04;;;;;;;2.83;2.55;;;;;;;;;;5038783;28;20051;-80
2023/12/04 00:36:33;;;;;;;2.08;1.88;;;;;;;;;;5053030;28;20044;-81
2023/12/04 00:39:04;;;;;;;6.05;3.90;;;;;;;;;;5049809;28;20045;-80
2023/12/04 00:41:31;;;;;;;3.78;3.42;;;;;;;;;;5047619;28;20107;-81
2023/12/04 00:44:08;;;;;;;1.50;1.35;;;;;;;;;;5048189;28;20154;-80
2023/12/04 00:46:36;;;;;;;1.55;0.98;;;;;;;;;;5043157;28;20045;-79
2023/12/04 00:49:04;;;;;;;3.60;1.30;;;;;;;;;;5043644;28;20056;-79
2023/12/04 00:51:37;;;;;;;2.13;1.92;;;;;;;;;;5023951;28;20041;-79
2023/12/04 00:54:05;;;;;;;1.52;1.42;;;;;;;;;;5046568;28;20045;-79
2023/12/04 00:56:32;;;;;;;0.22;0.22;;;;;;;;;;5042542;28;20124;-79
2023/12/04 00:59:01;;;;;;;2.13;1.77;;;;;;;;;;5046724;28;20499;-78
2023/12/04 01:01:28;;;;;;;5.50;3.80;;;;;;;;;;5042108;28;20458;-78
2023/12/04 01:03:56;;;;;;;1.10;1.00;;;;;;;;;;5044936;28;20037;-78
2023/12/04 01:06:23;;;;;;;3.10;2.35;;;;;;;;;;5043952;28;20040;-78
2023/12/04 01:08:52;;;;;;;2.28;1.45;;;;;;;;;;5041218;28;20152;-78
2023/12/04 01:11:19;;;;;;;1.20;1.13;;;;;;;;;;5041801;28;20129;-78
2023/12/04 01:13:46;;;;;;;1.00;0.70;;;;;;;;;;5042714;28;20269;-78
2023/12/04 01:16:14;;;;;;;1.63;1.52;;;;;;;;;;5044844;28;20045;-78
2023/12/04 01:18:42;;;;;;;0.98;0.90;;;;;;;;;;5046399;28;20123;-78
2023/12/04 01:21:10;;;;;;;0.70;0.70;;;;;;;;;;5026707;28;20045;-78
2023/12/04 01:23:37;;;;;;;2.17;1.98;;;;;;;;;;5043449;28;20064;-78
2023/12/04 01:26:05;;;;;;;0.90;0.90;;;;;;;;;;5044579;28;20103;-78
2023/12/04 01:28:33;;;;;;;0.10;0.10;;;;;;;;;;5043585;28;20048;-78
2023/12/04 01:31:00;;;;;;;1.77;1.67;;;;;;;;;;5025342;28;20148;-78
2023/12/04 01:33:27;;;;;;;2.20;2.00;;;;;;;;;;5024876;28;20049;-78
2023/12/04 01:35:55;;;;;;;1.77;1.08;;;;;;;;;;5043455;28;20040;-78
2023/12/04 01:38:23;;;;;;;1.55;1.45;;;;;;;;;;5042042;28;20124;-78
2023/12/04 01:40:50;;;;;;;8.98;5.53;;;;;;;;;;5044123;28;20452;-78
2023/12/04 01:43:18;;;;;;;1.30;1.10;;;;;;;;;;5041942;28;20240;-78
2023/12/04 01:45:45;;;;;;;0.70;0.70;;;;;;;;;;5042748;28;20150;-78
2023/12/04 01:48:14;;;;;;;3.35;2.75;;;;;;;;;;5025751;28;20053;-78
2023/12/04 01:50:42;;;;;;;1.13;1.13;;;;;;;;;;5043793;28;20044;-78
2023/12/04 01:53:09;;;;;;;1.40;1.30;;;;;;;;;;5041078;28;20045;-78
2023/12/04 01:55:38;;;;;;;1.65;1.55;;;;;;;;;;5043703;28;20044;-78
2023/12/04 01:58:05;;;;;;;2.60;1.55;;;;;;;;;;5021053;28;20045;-78
2023/12/04 02:00:33;;;;;;;2.20;1.95;;;;;;;;;;5043069;28;20033;-78
2023/12/04 02:03:01;;;;;;;1.95;1.60;;;;;;;;;;5040701;28;20052;-78
2023/12/04 02:05:29;;;;;;;0.47;0.47;;;;;;;;;;5046507;28;20048;-78
2023/12/04 02:07:57;;;;;;;3.53;2.35;;;;;;;;;;5041347;28;20510;-79
2023/12/04 02:10:24;;;;;;;5.10;4.30;;;;;;;;;;5047713;28;20103;-80
2023/12/04 02:12:52;;;;;;;9.55;4.90;;;;;;;;;;5048830;28;20067;-79
2023/12/04 02:15:20;;;;;;;5.10;4.43;;;;;;;;;;5041260;28;20049;-79
2023/12/04 02:17:47;;;;;;;1.65;1.30;;;;;;;;;;5047637;28;20048;-79
2023/12/04 02:20:15;;;;;;;0.90;0.90;;;;;;;;;;5045656;28;20049;-79
2023/12/04 02:22:42;;;;;;;1.27;1.27;;;;;;;;;;5025013;28;20091;-79
2023/12/04 02:25:10;;;;;;;0.90;0.90;;;;;;;;;;5042447;28;20045;-79
2023/12/04 02:27:59;;;;;;;1.15;0.85;;;;;;;;;;5043401;28;20057;-79
2023/12/04 02:30:28;;;;;;;0.80;0.80;;;;;;;;;;5045233;28;20495;-79
2023/12/04 02:32:57;;;;;;;4.95;1.45;;;;;;;;;;5044836;28;20049;-79
2023/12/04 02:35:26;;;;;;;3.13;1.17;;;;;;;;;;5039701;28;20045;-79
2023/12/04 02:37:54;;;;;;;2.70;2.50;;;;;;;;;;5041009;28;20041;-79
2023/12/04 02:40:21;;;;;;;1.10;1.05;;;;;;;;;;5044240;28;20148;-79
2023/12/04 02:42:49;;;;;;;0.75;0.60;;;;;;;;;;5043383;28;20037;-79
2023/12/04 02:45:16;;;;;;;1.40;1.33;;;;;;;;;;5024841;28;20079;-79
2023/12/04 02:47:44;;;;;;;5.80;3.55;;;;;;;;;;5044256;28;20057;-79
2023/12/04 02:50:11;;;;;;;3.58;2.10;;;;;;;;;;5044137;28;20049;-79
2023/12/04 02:52:39;;;;;;;2.20;2.13;;;;;;;;;;5047189;28;20118;-79
2023/12/04 02:55:07;;;;;;;3.40;2.05;;;;;;;;;;5043778;28;20123;-79
2023/12/04 02:57:34;;;;;;;1.60;1.48;;;;;;;;;;5041501;28;20095;-79
2023/12/04 03:00:03;;;;;;;1.33;1.23;;;;;;;;;;5045207;28;20045;-79
2023/12/04 03:02:30;;;;;;;3.35;3.05;;;;;;;;;;5020966;28;20046;-78
2023/12/04 03:04:58;;;;;;;2.83;2.47;;;;;;;;;;5025958;28;20126;-77
2023/12/04 03:07:26;;;;;;;1.35;1.20;;;;;;;;;;5041768;28;20248;-77
2023/12/04 03:09:53;;;;;;;2.22;1.73;;;;;;;;;;5043896;28;20552;-77
2023/12/04 03:12:21;;;;;;;3.17;2.17;;;;;;;;;;5046053;28;20052;-77
2023/12/04 03:14:48;;;;;;;1.35;0.88;;;;;;;;;;5043664;28;20514;-77
2023/12/04 03:17:16;;;;;;;3.97;3.28;;;;;;;;;;5043624;28;20506;-77
2023/12/04 03:19:43;;;;;;;0.20;0.20;;;;;;;;;;5045295;28;20372;-77
2023/12/04 03:22:12;;;;;;;3.28;2.97;;;;;;;;;;5040334;28;20139;-77
2023/12/04 03:24:39;;;;;;;2.47;2.28;;;;;;;;;;5043956;28;20584;-77
2023/12/04 03:27:07;;;;;;;1.38;0.88;;;;;;;;;;5045159;28;20053;-77
2023/12/04 03:29:34;;;;;;;3.58;1.25;;;;;;;;;;5045472;28;20156;-77
2023/12/04 03:32:02;;;;;;;2.10;1.92;;;;;;;;;;5022381;28;20040;-77
2023/12/04 03:34:29;;;;;;;1.50;1.35;;;;;;;;;;5045153;28;20041;-77
2023/12/04 03:36:57;;;;;;;2.08;1.98;;;;;;;;;;5041444;28;20047;-77
2023/12/04 03:39:24;;;;;;;1.65;1.55;;;;;;;;;;5041824;28;20431;-77
2023/12/04 03:41:52;;;;;;;0.80;0.80;;;;;;;;;;5043288;28;20041;-77
2023/12/04 03:44:19;;;;;;;1.65;1.55;;;;;;;;;;5044706;28;20576;-77
2023/12/04 03:46:46;;;;;;;2.50;2.30;;;;;;;;;;5047167;28;20051;-77
2023/12/04 03:49:14;;;;;;;2.40;2.20;;;;;;;;;;5048405;28;20064;-77
2023/12/04 03:51:41;;;;;;;3.20;1.67;;;;;;;;;;5044791;28;20510;-77
2023/12/04 03:54:09;;;;;;;1.52;1.45;;;;;;;;;;5047537;28;20426;-77
2023/12/04 03:56:36;;;;;;;5.80;1.70;;;;;;;;;;5045504;28;20529;-77
2023/12/04 03:59:04;;;;;;;1.67;1.20;;;;;;;;;;5043566;28;20151;-77
2023/12/04 04:01:31;;;;;;;1.10;1.10;;;;;;;;;;5044597;28;20068;-77
2023/12/04 04:04:02;;;;;;;1.48;1.38;;;;;;;;;;5043967;28;20124;-77
2023/12/04 04:06:34;;;;;;;3.85;1.90;;;;;;;;;;5040050;28;20053;-77
2023/12/04 04:09:01;;;;;;;2.63;2.35;;;;;;;;;;5042670;28;20321;-77
2023/12/04 04:11:29;;;;;;;1.10;1.05;;;;;;;;;;5045117;28;20041;-77
2023/12/04 04:13:56;;;;;;;8.15;3.55;;;;;;;;;;5042424;28;20048;-77
2023/12/04 04:16:23;;;;;;;2.58;2.00;;;;;;;;;;5044116;28;20305;-77
2023/12/04 04:18:51;;;;;;;4.25;2.78;;;;;;;;;;5043843;28;20033;-77
2023/12/04 04:21:19;;;;;;;2.53;2.33;;;;;;;;;;5048498;28;20041;-77
2023/12/04 04:23:46;;;;;;;6.53;4.78;;;;;;;;;;5044163;28;20136;-77
2023/12/04 04:26:13;;;;;;;2.70;2.50;;;;;;;;;;5042947;28;20515;-77
2023/12/04 04:28:41;;;;;;;2.20;2.10;;;;;;;;;;5043999;28;20045;-77
2023/12/04 04:31:08;;;;;;;2.25;2.08;;;;;;;;;;5041745;28;20075;-77
2023/12/04 04:33:36;;;;;;;3.00;1.95;;;;;;;;;;5043142;28;20481;-77
2023/12/04 04:36:04;;;;;;;5.80;2.17;;;;;;;;;;5043944;28;20071;-77
2023/12/04 04:38:31;;;;;;;2.88;2.50;;;;;;;;;;5041540;28;20752;-77
2023/12/04 04:40:58;;;;;;;6.20;2.70;;;;;;;;;;5023654;28;20565;-77
2023/12/04 04:43:29;;;;;;;0.95;0.90;;;;;;;;;;5021906;28;20388;-77
2023/12/04 04:45:57;;;;;;;2.25;2.05;;;;;;;;;;5038320;28;20456;-77
2023/12/04 04:48:24;;;;;;;3.13;2.25;;;;;;;;;;5043346;28;20044;-77
2023/12/04 04:50:51;;;;;;;2.95;1.98;;;;;;;;;;5044329;28;20033;-77
2023/12/04 04:53:19;;;;;;;2.67;2.45;;;;;;;;;;5019790;28;20055;-77
2023/12/04 04:55:46;;;;;;;4.30;2.60;;;;;;;;;;5041004;28;20049;-77
2023/12/04 04:58:19;;;;;;;1.08;0.82;;;;;;;;;;5042772;28;20055;-77
2023/12/04 05:00:49;;;;;;;2.85;2.35;;;;;;;;;;5043721;28;20057;-77
2023/12/04 05:03:17;;;;;;;4.63;3.93;;;;;;;;;;5042879;28;20128;-77
2023/12/04 05:05:44;;;;;;;1.15;0.98;;;;;;;;;;5043540;28;20040;-77
2023/12/04 05:08:12;;;;;;;1.85;1.35;;;;;;;;;;5040560;28;20435;-76
2023/12/04 05:10:39;;;;;;;4.68;1.85;;;;;;;;;;5040577;28;20055;-77
2023/12/04 05:13:07;;;;;;;5.18;3.67;;;;;;;;;;5040564;28;20056;-77
2023/12/04 05:15:36;;;;;;;1.60;1.50;;;;;;;;;;5041014;28;20518;-77
2023/12/04 05:18:03;;;;;;;1.70;1.60;;;;;;;;;;5043934;28;20546;-77
2023/12/04 05:20:31;;;;;;;0.60;0.60;;;;;;;;;;5026103;28;20144;-77
2023/12/04 05:22:58;;;;;;;4.32;2.90;;;;;;;;;;5041217;28;20044;-78
2023/12/04 05:25:26;;;;;;;6.03;4.55;;;;;;;;;;5042651;28;20048;-78
2023/12/04 05:28:00;;;;;;;6.78;4.20;;;;;;;;;;5045644;28;20071;-78
2023/12/04 05:30:28;;;;;;;0.85;0.85;;;;;;;;;;5046905;28;20044;-78
2023/12/04 05:33:02;;;;;;;2.58;1.98;;;;;;;;;;5041202;28;20044;-78
2023/12/04 05:35:33;;;;;;;3.00;1.73;;;;;;;;;;5039355;28;20040;-78
2023/12/04 05:38:01;;;;;;;16.00;10.10;;;;;;;;;;5039309;28;20049;-78
2023/12/04 05:40:28;;;;;;;1.73;1.48;;;;;;;;;;5040607;28;20512;-78
2023/12/04 05:42:56;;;;;;;2.90;2.22;;;;;;;;;;5022982;28;20098;-78
2023/12/04 05:45:24;;;;;;;3.50;2.65;;;;;;;;;;5043257;28;20033;-78
2023/12/04 05:47:52;;;;;;;1.77;1.50;;;;;;;;;;5041777;28;20051;-78
2023/12/04 05:50:20;;;;;;;5.60;2.65;;;;;;;;;;5043467;28;20060;-78
2023/12/04 05:52:47;;;;;;;5.32;4.53;;;;;;;;;;5041247;28;20408;-79
2023/12/04 05:55:15;;;;;;;1.75;1.65;;;;;;;;;;5039189;28;20238;-79
2023/12/04 05:57:42;;;;;;;1.35;1.25;;;;;;;;;;5039566;28;20570;-79
2023/12/04 06:00:13;;;;;;;1.65;1.55;;;;;;;;;;5041737;28;20045;-79
2023/12/04 06:02:42;;;;;;;6.13;4.45;;;;;;;;;;5036773;28;20063;-78
2023/12/04 06:05:10;;;;;;;3.60;2.20;;;;;;;;;;5041178;28;20045;-79
2023/12/04 06:07:38;;;;;;;4.55;1.98;;;;;;;;;;5023465;28;20052;-79
2023/12/04 06:10:05;;;;;;;2.45;1.92;;;;;;;;;;5042840;28;20558;-78
2023/12/04 06:12:33;;;;;;;7.25;5.93;;;;;;;;;;5039420;28;20329;-78
2023/12/04 06:15:01;;;;;;;3.03;1.55;;;;;;;;;;5042589;28;20041;-78
2023/12/04 06:17:31;;;;;;;3.47;2.58;;;;;;;;;;5020454;28;20555;-79
2023/12/04 06:19:58;;;;;;;3.15;2.85;;;;;;;;;;5034276;28;20033;-79
2023/12/04 06:22:26;;;;;;;2.03;1.83;;;;;;;;;;5033351;28;20041;-78
2023/12/04 06:24:53;;;;;;;6.70;3.53;;;;;;;;;;5040151;28;20064;-79
2023/12/04 06:27:21;;;;;;;8.73;3.45;;;;;;;;;;5016251;28;20062;-79
2023/12/04 06:29:51;;;;;;;4.65;3.72;;;;;;;;;;5039881;28;20049;-79
2023/12/04 06:32:21;;;;;;;4.13;3.40;;;;;;;;;;5020476;28;20672;-79
2023/12/04 06:34:49;;;;;;;4.90;4.18;;;;;;;;;;5036179;28;20045;-79
2023/12/04 06:37:17;;;;;;;4.45;3.00;;;;;;;;;;5037195;28;20255;-79
2023/12/04 06:39:46;;;;;;;2.78;2.55;;;;;;;;;;5038759;28;20053;-79
2023/12/04 06:42:14;;;;;;;4.20;3.55;;;;;;;;;;5034695;28;20045;-79
2023/12/04 06:44:41;;;;;;;5.95;3.90;;;;;;;;;;5036187;28;20063;-79
2023/12/04 06:47:09;;;;;;;6.07;3.40;;;;;;;;;;5039685;28;20568;-79
2023/12/04 06:49:36;;;;;;;1.33;1.00;;;;;;;;;;5037763;28;20069;-79
2023/12/04 06:52:04;;;;;;;6.00;4.28;;;;;;;;;;5041784;28;20831;-79
2023/12/04 06:54:32;;;;;;;2.05;1.92;;;;;;;;;;5041675;28;20049;-78
2023/12/04 06:56:59;;;;;;;2.50;1.88;;;;;;;;;;5028992;28;20056;-79
2023/12/04 06:59:27;;;;;;;1.67;1.55;;;;;;;;;;5048230;28;20055;-79
2023/12/04 07:01:55;;;;;;;3.63;2.35;;;;;;;;;;5046237;28;20064;-79
2023/12/04 07:04:22;;;;;;;2.10;1.98;;;;;;;;;;5023949;28;20391;-79
2023/12/04 07:06:50;;;;;;;1.92;1.35;;;;;;;;;;5046921;28;20701;-79
2023/12/04 07:09:18;;;;;;;4.18;2.78;;;;;;;;;;5044252;28;20419;-80
2023/12/04 07:11:46;;;;;;;3.78;3.25;;;;;;;;;;5045104;28;20114;-80
2023/12/04 07:14:24;;;;;;;4.18;3.22;;;;;;;;;;5038658;28;20315;-79
2023/12/04 07:16:58;;;;;;;2.25;2.13;;;;;;;;;;5083977;27;20534;-74
2023/12/04 07:19:26;;;;;;;1.98;1.88;;;;;;;;;;5066189;28;20055;-73
2023/12/04 07:21:54;;;;;;;3.47;1.00;;;;;;;;;;5062081;28;20042;-74
2023/12/04 07:24:22;;;;;;;4.85;2.00;;;;;;;;;;5064470;28;20268;-74
2023/12/04 07:26:50;;;;;;;1.10;1.00;;;;;;;;;;5054950;28;20431;-74
2023/12/04 07:29:17;;;;;;;4.45;3.53;;;;;;;;;;5044298;28;20057;-73
2023/12/04 07:31:44;;;;;;;1.40;1.30;;;;;;;;;;5063504;28;20103;-74
2023/12/04 07:34:12;;;;;;;0.40;0.40;;;;;;;;;;5063057;28;20059;-74
2023/12/04 07:36:40;;;;;;;4.28;3.97;;;;;;;;;;5061928;28;20071;-73
2023/12/04 07:39:07;;;;;;;0.82;0.82;;;;;;;;;;5063498;28;20051;-74
2023/12/04 07:41:34;;;;;;;2.95;2.00;;;;;;;;;;5076273;28;20093;-74
2023/12/04 07:44:03;;;;;;;1.42;1.33;;;;;;;;;;5063491;28;20049;-74
2023/12/04 07:46:30;;;;;;;1.13;1.13;;;;;;;;;;5062125;28;20052;-74
2023/12/04 07:48:58;;;;;;;0.93;0.88;;;;;;;;;;5063116;28;20118;-74
2023/12/04 07:51:26;;;;;;;2.90;2.60;;;;;;;;;;5063516;28;20544;-73
2023/12/04 07:53:53;;;;;;;3.25;2.78;;;;;;;;;;5063147;28;20064;-74
2023/12/04 07:56:21;;;;;;;3.28;2.95;;;;;;;;;;5063059;28;20056;-74
2023/12/04 07:58:48;;;;;;;2.78;1.83;;;;;;;;;;5062457;28;20052;-73
2023/12/04 08:01:16;;;;;;;1.40;1.20;;;;;;;;;;5064251;28;20045;-74
2023/12/04 08:03:43;;;;;;;4.47;2.65;;;;;;;;;;5061966;28;20044;-74
2023/12/04 08:06:11;;;;;;;2.97;2.55;;;;;;;;;;5063389;28;20064;-73
2023/12/04 08:08:38;;;;;;;2.25;1.60;;;;;;;;;;5062408;28;20131;-73
2023/12/04 08:11:06;;;;;;;2.42;2.22;;;;;;;;;;5062591;28;20387;-73
2023/12/04 08:13:33;;;;;;;5.32;3.35;;;;;;;;;;5061100;28;20123;-74
2023/12/04 08:16:01;;;;;;;5.28;2.13;;;;;;;;;;5062368;28;20060;-73
2023/12/04 08:18:29;;;;;;;1.58;1.50;;;;;;;;;;5070211;28;20133;-76
2023/12/04 08:20:57;;;;;;;0.63;0.63;;;;;;;;;;5083346;28;20041;-74
2023/12/04 08:23:25;;;;;;;0.73;0.73;;;;;;;;;;5066655;28;20041;-75
2023/12/04 08:25:52;;;;;;;1.83;1.73;;;;;;;;;;5063154;28;20553;-74
2023/12/04 08:28:20;;;;;;;1.08;1.02;;;;;;;;;;5049387;28;20511;-73
2023/12/04 08:30:47;;;;;;;1.15;1.15;;;;;;;;;;5047933;28;20049;-75
2023/12/04 08:33:15;;;;;;;3.20;2.55;;;;;;;;;;5048752;28;20856;-75
2023/12/04 08:35:43;;;;;;;1.70;1.35;;;;;;;;;;5049256;28;20116;-74
2023/12/04 08:38:11;;;;;;;2.80;2.58;;;;;;;;;;5049690;28;20048;-75
2023/12/04 08:40:39;;;;;;;0.77;0.77;;;;;;;;;;5047309;28;20045;-74
2023/12/04 08:43:07;;;;;;;5.78;5.25;;;;;;;;;;5049334;28;20052;-75
2023/12/04 08:45:34;;;;;;;10.70;5.43;;;;;;;;;;5046627;28;20052;-73
2023/12/04 08:48:02;;;;;;;9.50;4.72;;;;;;;;;;5048962;28;20057;-75
2023/12/04 08:50:30;;;;;;;5.38;2.67;;;;;;;;;;5048551;28;20111;-74
2023/12/04 08:52:58;;;;;;;2.40;2.30;;;;;;;;;;5049066;28;20524;-74
2023/12/04 08:55:25;;;;;;;1.63;1.27;;;;;;;;;;5048648;28;20070;-74
2023/12/04 08:57:53;;;;;;;2.25;2.00;;;;;;;;;;5027522;28;20159;-74
2023/12/04 09:00:21;;;;;;;8.05;7.32;;;;;;;;;;5041295;28;20122;-74
2023/12/04 09:02:49;;;;;;;4.38;3.38;;;;;;;;;;5048348;28;20455;-75
2023/12/04 09:05:31;;;;;;;3.10;2.85;;;;;;;;;;5047314;28;20155;-74
2023/12/04 09:08:00;;;;;;;3.85;3.53;;;;;;;;;;5049175;28;20044;-74
2023/12/04 09:10:47;;;;;;;2.20;2.10;;;;;;;;;;5047459;28;20080;-74
2023/12/04 09:13:35;;;;;;;5.57;4.22;;;;;;;;;;5048765;28;20395;-74
2023/12/04 09:16:03;;;;;;;0.30;0.30;;;;;;;;;;5047026;28;20415;-74
2023/12/04 09:18:30;;;;;;;2.58;2.38;;;;;;;;;;5047102;28;20380;-74
2023/12/04 09:20:58;;;;;;;1.42;1.40;;;;;;;;;;5047854;28;20450;-72
2023/12/04 09:23:25;;;;;;;1.60;1.50;;;;;;;;;;5048551;28;20045;-74
2023/12/04 09:25:55;;;;;;;2.35;2.25;;;;;;;;;;5048495;28;20507;-74
2023/12/04 09:28:22;;;;;;;1.60;1.55;;;;;;;;;;5046612;28;20130;-74
2023/12/04 09:30:50;;;;;;;3.58;3.20;;;;;;;;;;5028298;28;20049;-74
2023/12/04 09:33:17;;;;;;;2.10;1.55;;;;;;;;;;5044938;28;20136;-73
2023/12/04 09:35:45;;;;;;;0.70;0.70;;;;;;;;;;5047470;28;20056;-73
2023/12/04 09:38:13;;;;;;;4.60;2.72;;;;;;;;;;5025118;28;20061;-74
2023/12/04 09:40:41;;;;;;;2.25;2.05;;;;;;;;;;5029028;28;20046;-73
2023/12/04 09:43:08;;;;;;;0.77;0.75;;;;;;;;;;5046600;28;20049;-73
2023/12/04 09:45:36;;;;;;;0.45;0.45;;;;;;;;;;5047868;28;20491;-74
2023/12/04 09:48:04;;;;;;;0.70;0.70;;;;;;;;;;5047130;28;20048;-74
2023/12/04 09:50:32;;;;;;;2.00;1.90;;;;;;;;;;5047968;28;20057;-74
2023/12/04 09:53:01;;;;;;;1.20;1.15;;;;;;;;;;5048042;28;20047;-74
2023/12/04 09:55:29;;;;;;;2.28;2.08;;;;;;;;;;5042668;28;20050;-73
2023/12/04 09:57:58;;;;;;;0.73;0.68;;;;;;;;;;5046582;28;20418;-74
2023/12/04 10:00:26;;;;;;;0.70;0.70;;;;;;;;;;5047543;28;20045;-73
2023/12/04 10:02:53;;;;;;;0.85;0.75;;;;;;;;;;5047677;28;20072;-72
2023/12/04 10:05:21;;;;;;;1.52;1.42;;;;;;;;;;5044559;28;20119;-75
2023/12/04 10:07:48;;;;;;;5.68;3.33;;;;;;;;;;5046558;28;20498;-74
2023/12/04 10:10:16;;;;;;;0.40;0.40;;;;;;;;;;5046307;28;20041;-72
2023/12/04 10:12:44;;;;;;;1.65;1.40;;;;;;;;;;5039185;28;20381;-74
2023/12/04 10:15:12;;;;;;;2.22;2.13;;;;;;;;;;5047744;28;20083;-73
2023/12/04 10:17:41;;;;;;;2.95;2.75;;;;;;;;;;5039843;28;20100;-73
2023/12/04 10:20:17;;;;;;;0.80;0.80;;;;;;;;;;5056485;28;20044;-72
2023/12/04 10:22:56;;;;;;;2.22;2.08;;;;;;;;;;5048041;28;20387;-73
2023/12/04 10:25:25;;;;;;;0.15;0.15;;;;;;;;;;5046790;28;20048;-73
2023/12/04 10:27:54;;;;;;;0.70;0.68;;;;;;;;;;5047185;28;20045;-74
2023/12/04 10:30:30;;;;;;;7.30;5.72;;;;;;;;;;5046731;28;20048;-75
2023/12/04 10:33:00;;;;;;;1.45;1.38;;;;;;;;;;5047124;28;20564;-74
2023/12/04 10:35:32;;;;;;;2.10;1.90;;;;;;;;;;5050910;28;20044;-74
2023/12/04 10:38:00;;;;;;;2.80;2.60;;;;;;;;;;5047086;28;20044;-73
2023/12/04 10:40:29;;;;;;;2.80;2.60;;;;;;;;;;5039425;28;20120;-74
2023/12/04 10:43:14;;;;;;;1.25;1.15;;;;;;;;;;5046326;28;20051;-75
2023/12/04 10:45:43;;;;;;;5.35;3.90;;;;;;;;;;5033796;28;20056;-74
2023/12/04 10:48:11;;;;;;;8.32;3.35;;;;;;;;;;5047424;28;20056;-74
2023/12/04 10:50:39;;;;;;;2.60;2.28;;;;;;;;;;5046921;28;20576;-75
2023/12/04 10:53:09;;;;;;;0.40;0.40;;;;;;;;;;5046702;28;20103;-73
2023/12/04 10:55:36;;;;;;;0.30;0.30;;;;;;;;;;5044831;28;20048;-75
2023/12/04 10:58:11;;;;;;;0.57;0.57;;;;;;;;;;5046671;28;20041;-74
2023/12/04 11:00:41;;;;;;;2.95;2.75;;;;;;;;;;5047008;28;20045;-75
2023/12/04 11:03:09;;;;;;;6.75;1.58;;;;;;;;;;5046885;28;20041;-75
2023/12/04 11:05:39;;;;;;;1.65;1.55;;;;;;;;;;5041069;28;20040;-75
2023/12/04 11:08:11;;;;;;;6.40;2.20;;;;;;;;;;5046507;28;20076;-75
2023/12/04 11:10:57;;;;;;;3.15;2.75;;;;;;;;;;5043458;28;20439;-74
2023/12/04 11:13:29;;;;;;;4.05;2.72;;;;;;;;;;5044158;28;20041;-75
2023/12/04 11:16:02;;;;;;;0.28;0.28;;;;;;;;;;5047372;28;20053;-75
2023/12/04 11:18:32;;;;;;;0.45;0.45;;;;;;;;;;5046931;28;20041;-75
2023/12/04 11:21:04;;;;;;;1.70;1.60;;;;;;;;;;5046838;28;20037;-74
2023/12/04 11:23:32;;;;;;;0.75;0.75;;;;;;;;;;5046204;28;20048;-75
2023/12/04 11:26:00;;;;;;;1.77;1.67;;;;;;;;;;5046065;28;20076;-75
2023/12/04 11:28:28;;;;;;;4.32;3.22;;;;;;;;;;5046436;28;20123;-74
2023/12/04 11:30:56;;;;;;;0.82;0.82;;;;;;;;;;5046544;28;20052;-74
2023/12/04 11:33:24;;;;;;;3.10;2.10;;;;;;;;;;5046632;28;20518;-74
2023/12/04 11:35:52;;;;;;;2.47;2.30;;;;;;;;;;5047461;28;20464;-75
2023/12/04 11:38:19;;;;;;;0.90;0.90;;;;;;;;;;5046620;28;20052;-74
2023/12/04 11:40:47;;;;;;;0.15;0.15;;;;;;;;;;5053706;28;20505;-74
2023/12/04 11:43:27;;;;;;;1.38;1.30;;;;;;;;;;5046031;28;20415;-74
2023/12/04 11:46:08;;;;;;;1.20;1.13;;;;;;;;;;5046243;28;20126;-75
2023/12/04 11:48:39;;;;;;;1.45;1.42;;;;;;;;;;5046262;28;20044;-73
2023/12/04 11:51:07;;;;;;;0.65;0.65;;;;;;;;;;5046160;28;20049;-74
2023/12/04 11:53:39;;;;;;;3.92;1.45;;;;;;;;;;5046031;28;20040;-74
2023/12/04 11:56:11;;;;;;;3.50;3.17;;;;;;;;;;5048313;28;20126;-74
2023/12/04 11:58:39;;;;;;;;;;;;;;;;;;5046589;28;20056;-74
2023/12/04 12:01:06;;;;;;;1.52;1.45;;;;;;;;;;5046371;28;20333;-73
2023/12/04 12:03:34;;;;;;;0.47;0.47;;;;;;;;;;5044388;28;20053;-74
2023/12/04 12:06:01;;;;;;;3.67;3.38;;;;;;;;;;5050016;28;20056;-73
2023/12/04 12:08:29;;;;;;;1.70;1.42;;;;;;;;;;5049962;28;20493;-74
2023/12/04 12:10:58;;;;;;;0.10;0.10;;;;;;;;;;5041883;28;20557;-73
2023/12/04 12:13:26;;;;;;;2.20;2.00;;;;;;;;;;5048012;28;20037;-74
2023/12/04 12:15:53;;;;;;;1.55;1.45;;;;;;;;;;5043818;28;20049;-73
2023/12/04 12:18:23;;;;;;;2.65;2.45;;;;;;;;;;5050836;28;20073;-74
2023/12/04 12:20:51;;;;;;;0.25;0.25;;;;;;;;;;5046267;28;20037;-74
2023/12/04 12:23:19;;;;;;;0.30;0.30;;;;;;;;;;5042773;28;20049;-74
2023/12/04 12:25:47;;;;;;;0.88;0.80;;;;;;;;;;5048660;28;20494;-74
2023/12/04 12:28:15;;;;;;;0.55;0.55;;;;;;;;;;5049443;28;20056;-74
2023/12/04 12:30:45;;;;;;;0.63;0.63;;;;;;;;;;5060368;28;20413;-74
2023/12/04 12:33:16;;;;;;;3.83;1.85;;;;;;;;;;5069386;28;20063;-73
2023/12/04 12:35:44;;;;;;;1.65;1.55;;;;;;;;;;5057395;28;20041;-73
2023/12/04 12:38:26;;;;;;;1.70;1.60;;;;;;;;;;5049461;28;20057;-73
2023/12/04 12:40:54;;;;;;;1.85;1.75;;;;;;;;;;5049352;28;20149;-74
2023/12/04 12:43:23;;;;;;;0.80;0.80;;;;;;;;;;5032318;28;20128;-73
2023/12/04 12:45:51;;;;;;;18.63;1.67;;;;;;;;;;5041636;28;20052;-73
2023/12/04 12:48:19;;;;;;;0.68;0.68;;;;;;;;;;5040698;28;20052;-74
2023/12/04 12:50:50;;;;;;;1.20;1.10;;;;;;;;;;5048805;28;20051;-74
2023/12/04 12:53:18;;;;;;;0.30;0.30;;;;;;;;;;5035350;28;20607;-74
2023/12/04 12:55:46;;;;;;;0.30;0.30;;;;;;;;;;5047968;28;20553;-73
2023/12/04 12:58:15;;;;;;;5.28;3.78;;;;;;;;;;5043651;28;20057;-74
2023/12/04 13:00:43;;;;;;;2.05;1.80;;;;;;;;;;5035748;22;20057;-82
2023/12/04 13:03:15;;;;;;;2.40;2.30;;;;;;;;;;4984509;28;20065;-81
2023/12/04 13:05:46;;;;;;;2.58;2.42;;;;;;;;;;4998787;28;20419;-82
2023/12/04 13:08:15;;;;;;;0.83;0.83;;;;;;;;;;4983896;28;20050;-82
2023/12/04 13:10:43;;;;;;;1.38;1.30;;;;;;;;;;5002571;28;20297;-81
2023/12/04 13:13:11;;;;;;;0.25;0.25;;;;;;;;;;5000737;28;20114;-82
2023/12/04 13:15:42;;;;;;;0.90;0.90;;;;;;;;;;4998085;28;20049;-88
2023/12/04 13:18:10;;;;;;;2.55;1.85;;;;;;;;;;4998211;28;21416;-81
2023/12/04 13:20:40;;;;;;;0.85;0.85;;;;;;;;;;4989983;28;20046;-81
2023/12/04 13:23:09;;;;;;;1.33;1.33;;;;;;;;;;4989489;28;20054;-82
2023/12/04 13:25:36;;;;;;;3.38;2.05;;;;;;;;;;4979997;28;20047;-82
2023/12/04 13:28:04;;;;;;;0.93;0.93;;;;;;;;;;4998491;28;20046;-81
2023/12/04 13:30:34;;;;;;;0.57;0.57;;;;;;;;;;4982914;28;20046;-81
2023/12/04 13:33:02;;;;;;;1.45;0.93;;;;;;;;;;4997286;28;20046;-82
2023/12/04 13:35:31;;;;;;;1.33;1.33;;;;;;;;;;4983243;28;20840;-81
2023/12/04 13:37:59;;;;;;;2.47;1.98;;;;;;;;;;4979595;28;20042;-81
2023/12/04 13:40:32;;;;;;;0.75;0.75;;;;;;;;;;4997248;28;20046;-82
2023/12/04 13:45:47;;;;;;;3.85;1.85;;;;;;;;;;4977298;28;20046;-81
2023/12/04 13:48:21;;;;;;;0.35;0.35;;;;;;;;;;4976767;28;20060;-82
2023/12/04 13:50:50;;;;;;;2.13;2.03;;;;;;;;;;4995564;28;20069;-83
2023/12/04 13:53:24;;;;;;;0.93;0.93;;;;;;;;;;4997288;28;20046;-82
2023/12/04 13:58:44;;;;;;;2.13;2.03;;;;;;;;;;4996416;28;20038;-85
2023/12/04 14:01:17;;;;;;;1.05;1.05;;;;;;;;;;4994773;28;21235;-81
2023/12/04 14:03:47;;;;;;;2.25;1.70;;;;;;;;;;4978291;28;20042;-81
2023/12/04 14:06:18;;;;;;;0.88;0.88;;;;;;;;;;4993958;28;20055;-81
2023/12/04 14:08:47;;;;;;;0.60;0.60;;;;;;;;;;4984000;28;20046;-82
2023/12/04 14:11:16;;;;;;;5.35;2.17;;;;;;;;;;4995788;28;20070;-83
2023/12/04 14:13:49;;;;;;;3.58;3.28;;;;;;;;;;4997933;28;20050;-81
2023/12/04 14:16:19;;;;;;;1.27;0.95;;;;;;;;;;4983745;28;20042;-82
2023/12/04 14:18:46;;;;;;;2.10;1.90;;;;;;;;;;4998283;28;20050;-83
2023/12/04 14:21:14;;;;;;;2.22;2.03;;;;;;;;;;4998020;28;20052;-81
2023/12/04 14:23:41;;;;;;;1.38;1.23;;;;;;;;;;4996088;28;20121;-82
2023/12/04 14:26:11;;;;;;;1.50;1.40;;;;;;;;;;4999051;28;20038;-82
2023/12/04 14:28:40;;;;;;;0.80;0.80;;;;;;;;;;4996655;28;20116;-81
2023/12/04 14:31:10;;;;;;;2.00;1.90;;;;;;;;;;4996825;28;20096;-82
2023/12/04 14:33:38;;;;;;;4.00;2.95;;;;;;;;;;4995411;28;20050;-81
2023/12/04 14:36:11;;;;;;;3.15;2.70;;;;;;;;;;4982251;28;20077;-81
2023/12/04 14:38:39;;;;;;;3.13;2.88;;;;;;;;;;4994597;28;20121;-82
2023/12/04 14:41:10;;;;;;;7.35;4.65;;;;;;;;;;4994064;28;20054;-82
2023/12/04 14:43:42;;;;;;;6.85;5.10;;;;;;;;;;4980107;28;20465;-79
2023/12/04 14:46:10;;;;;;;2.67;2.08;;;;;;;;;;4999771;28;20050;-79
2023/12/04 14:48:41;;;;;;;1.92;1.77;;;;;;;;;;4996555;28;20050;-80
2023/12/04 14:51:13;;;;;;;0.63;0.63;;;;;;;;;;4997696;28;20052;-79
2023/12/04 14:54:11;;;;;;;2.22;2.08;;;;;;;;;;4994248;28;20057;-80
2023/12/04 15:02:37;;;;;;;0.85;0.77;;;;;;;;;;4999088;28;20125;-80
2023/12/04 15:18:36;;;;;;;5.10;3.10;;;;;;;;;;4999081;28;20034;-80